sensor_id;sensor_type;location;lat;lon;timestamp;pressure;altitude;pressure_sealevel;temperature;humidity
33781;BME280;20097;50.832;19.100;2023-05-16T00:02:57;97649.66;;;9.94;100.00
33781;BME280;20097;50.832;19.100;2023-05-16T00:08:03;97647.78;;;9.88;100.00
33781;BME280;20097;50.832;19.100;2023-05-16T00:13:07;97657.19;;;9.82;100.00
33781;BME280;20097;50.832;19.100;2023-05-16T00:18:11;97664.09;;;9.75;100.00
33781;BME280;20097;50.832;19.100;2023-05-16T00:23:19;97668.06;;;9.71;100.00
33781;BME280;20097;50.832;19.100;2023-05-16T00:28:23;97668.78;;;9.65;100.00
33781;BME280;20097;50.832;19.100;2023-05-16T00:33:27;97681.00;;;9.64;100.00
33781;BME280;20097;50.832;19.100;2023-05-16T00:38:34;97679.75;;;9.60;100.00
33781;BME280;20097;50.832;19.100;2023-05-16T00:43:40;97682.94;;;9.56;100.00
33781;BME280;20097;50.832;19.100;2023-05-16T00:48:44;97675.81;;;9.50;100.00
33781;BME280;20097;50.832;19.100;2023-05-16T00:53:49;97675.72;;;9.43;100.00
33781;BME280;20097;50.832;19.100;2023-05-16T00:58:53;97674.50;;;9.39;100.00
33781;BME280;20097;50.832;19.100;2023-05-16T01:03:57;97665.03;;;9.38;100.00
33781;BME280;20097;50.832;19.100;2023-05-16T01:09:04;97668.84;;;9.36;100.00
33781;BME280;20097;50.832;19.100;2023-05-16T01:14:13;97671.72;;;9.26;100.00
33781;BME280;20097;50.832;19.100;2023-05-16T01:19:26;97664.53;;;9.28;100.00
33781;BME280;20097;50.832;19.100;2023-05-16T01:24:40;97666.59;;;9.18;100.00
33781;BME280;20097;50.832;19.100;2023-05-16T01:29:48;97676.75;;;9.13;100.00
33781;BME280;20097;50.832;19.100;2023-05-16T01:34:52;97674.16;;;9.13;100.00
33781;BME280;20097;50.832;19.100;2023-05-16T01:40:01;97676.66;;;9.07;100.00
33781;BME280;20097;50.832;19.100;2023-05-16T01:45:13;97680.41;;;9.04;100.00
33781;BME280;20097;50.832;19.100;2023-05-16T01:50:19;97685.97;;;9.01;100.00
33781;BME280;20097;50.832;19.100;2023-05-16T01:55:31;97691.53;;;8.98;100.00
33781;BME280;20097;50.832;19.100;2023-05-16T02:00:40;97697.47;;;8.92;100.00
33781;BME280;20097;50.832;19.100;2023-05-16T02:05:44;97690.00;;;8.89;100.00
33781;BME280;20097;50.832;19.100;2023-05-16T02:10:48;97681.28;;;8.82;100.00
33781;BME280;20097;50.832;19.100;2023-05-16T02:15:54;97681.38;;;8.74;100.00
33781;BME280;20097;50.832;19.100;2023-05-16T02:20:58;97683.34;;;8.72;100.00
33781;BME280;20097;50.832;19.100;2023-05-16T02:26:03;97694.75;;;8.71;100.00
33781;BME280;20097;50.832;19.100;2023-05-16T02:31:08;97688.25;;;8.67;100.00
33781;BME280;20097;50.832;19.100;2023-05-16T02:36:12;97692.03;;;8.65;100.00
33781;BME280;20097;50.832;19.100;2023-05-16T02:41:18;97694.28;;;8.68;100.00
33781;BME280;20097;50.832;19.100;2023-05-16T02:46:26;97685.84;;;8.66;100.00
33781;BME280;20097;50.832;19.100;2023-05-16T02:51:30;97689.59;;;8.63;100.00
33781;BME280;20097;50.832;19.100;2023-05-16T02:56:34;97687.06;;;8.55;100.00
33781;BME280;20097;50.832;19.100;2023-05-16T03:01:40;97691.94;;;8.58;100.00
33781;BME280;20097;50.832;19.100;2023-05-16T03:06:44;97688.31;;;8.59;100.00
33781;BME280;20097;50.832;19.100;2023-05-16T03:11:48;97690.56;;;8.62;100.00
33781;BME280;20097;50.832;19.100;2023-05-16T03:16:55;97697.78;;;8.60;100.00
33781;BME280;20097;50.832;19.100;2023-05-16T03:22:00;97699.19;;;8.63;100.00
33781;BME280;20097;50.832;19.100;2023-05-16T03:27:04;97718.41;;;8.62;100.00
33781;BME280;20097;50.832;19.100;2023-05-16T03:32:10;97717.88;;;8.66;100.00
33781;BME280;20097;50.832;19.100;2023-05-16T03:37:14;97730.63;;;8.76;100.00
33781;BME280;20097;50.832;19.100;2023-05-16T03:42:18;97718.53;;;8.83;100.00
33781;BME280;20097;50.832;19.100;2023-05-16T03:47:24;97725.00;;;8.87;100.00
33781;BME280;20097;50.832;19.100;2023-05-16T03:52:28;97729.56;;;8.85;100.00
33781;BME280;20097;50.832;19.100;2023-05-16T03:57:32;97731.41;;;8.99;100.00
33781;BME280;20097;50.832;19.100;2023-05-16T04:02:38;97737.78;;;9.11;100.00
33781;BME280;20097;50.832;19.100;2023-05-16T04:07:43;97741.66;;;9.29;100.00
33781;BME280;20097;50.832;19.100;2023-05-16T04:12:47;97761.50;;;9.45;100.00
33781;BME280;20097;50.832;19.100;2023-05-16T04:17:53;97765.94;;;9.59;100.00
33781;BME280;20097;50.832;19.100;2023-05-16T04:22:57;97760.34;;;9.77;100.00
33781;BME280;20097;50.832;19.100;2023-05-16T04:28:00;97773.16;;;9.93;100.00
33781;BME280;20097;50.832;19.100;2023-05-16T04:33:06;97769.59;;;10.08;100.00
33781;BME280;20097;50.832;19.100;2023-05-16T04:38:10;97766.78;;;10.24;100.00
33781;BME280;20097;50.832;19.100;2023-05-16T04:43:14;97760.31;;;10.41;100.00
33781;BME280;20097;50.832;19.100;2023-05-16T04:48:19;97772.94;;;10.59;100.00
33781;BME280;20097;50.832;19.100;2023-05-16T04:53:23;97781.50;;;10.74;100.00
33781;BME280;20097;50.832;19.100;2023-05-16T04:58:27;97786.91;;;10.93;100.00
33781;BME280;20097;50.832;19.100;2023-05-16T05:03:33;97784.84;;;11.10;100.00
33781;BME280;20097;50.832;19.100;2023-05-16T05:08:37;97786.59;;;11.31;100.00
33781;BME280;20097;50.832;19.100;2023-05-16T05:13:41;97800.56;;;11.44;100.00
33781;BME280;20097;50.832;19.100;2023-05-16T05:18:47;97798.13;;;11.64;100.00
33781;BME280;20097;50.832;19.100;2023-05-16T05:23:51;97812.94;;;11.91;100.00
33781;BME280;20097;50.832;19.100;2023-05-16T05:28:55;97815.25;;;12.13;100.00
33781;BME280;20097;50.832;19.100;2023-05-16T05:34:08;97824.63;;;12.35;100.00
33781;BME280;20097;50.832;19.100;2023-05-16T05:39:13;97829.31;;;12.60;100.00
33781;BME280;20097;50.832;19.100;2023-05-16T05:44:17;97838.84;;;12.80;100.00
33781;BME280;20097;50.832;19.100;2023-05-16T05:49:23;97836.25;;;13.00;100.00
33781;BME280;20097;50.832;19.100;2023-05-16T05:54:27;97834.09;;;13.16;100.00
33781;BME280;20097;50.832;19.100;2023-05-16T05:59:31;97858.69;;;13.41;100.00
33781;BME280;20097;50.832;19.100;2023-05-16T06:04:36;97861.09;;;13.69;100.00
33781;BME280;20097;50.832;19.100;2023-05-16T06:09:40;97857.84;;;13.80;100.00
33781;BME280;20097;50.832;19.100;2023-05-16T06:14:45;97869.50;;;13.97;100.00
33781;BME280;20097;50.832;19.100;2023-05-16T06:19:50;97864.84;;;14.25;100.00
33781;BME280;20097;50.832;19.100;2023-05-16T06:24:54;97867.97;;;14.53;100.00
33781;BME280;20097;50.832;19.100;2023-05-16T06:29:58;97879.59;;;14.70;100.00
33781;BME280;20097;50.832;19.100;2023-05-16T06:35:04;97863.75;;;14.83;100.00
33781;BME280;20097;50.832;19.100;2023-05-16T06:40:08;97858.34;;;15.09;100.00
33781;BME280;20097;50.832;19.100;2023-05-16T06:45:13;97863.53;;;15.23;100.00
33781;BME280;20097;50.832;19.100;2023-05-16T06:50:19;97861.53;;;15.18;100.00
33781;BME280;20097;50.832;19.100;2023-05-16T06:55:23;97860.88;;;15.54;100.00
33781;BME280;20097;50.832;19.100;2023-05-16T07:00:28;97880.91;;;15.55;100.00
33781;BME280;20097;50.832;19.100;2023-05-16T07:05:33;97876.50;;;15.73;100.00
33781;BME280;20097;50.832;19.100;2023-05-16T07:10:38;97887.28;;;15.90;100.00
33781;BME280;20097;50.832;19.100;2023-05-16T07:15:42;97877.44;;;16.03;100.00
33781;BME280;20097;50.832;19.100;2023-05-16T07:20:47;97873.41;;;16.19;100.00
33781;BME280;20097;50.832;19.100;2023-05-16T07:25:51;97875.47;;;16.17;100.00
33781;BME280;20097;50.832;19.100;2023-05-16T07:30:55;97869.59;;;16.33;100.00
33781;BME280;20097;50.832;19.100;2023-05-16T07:36:02;97872.50;;;16.50;100.00
33781;BME280;20097;50.832;19.100;2023-05-16T07:41:18;97883.06;;;16.43;99.10
33781;BME280;20097;50.832;19.100;2023-05-16T07:46:23;97886.91;;;16.47;100.00
33781;BME280;20097;50.832;19.100;2023-05-16T07:51:29;97882.84;;;16.44;95.36
33781;BME280;20097;50.832;19.100;2023-05-16T07:56:33;97891.00;;;16.61;95.38
33781;BME280;20097;50.832;19.100;2023-05-16T08:01:38;97899.16;;;16.89;100.00
33781;BME280;20097;50.832;19.100;2023-05-16T08:06:43;97902.81;;;16.88;100.00
33781;BME280;20097;50.832;19.100;2023-05-16T08:11:47;97900.22;;;17.00;100.00
33781;BME280;20097;50.832;19.100;2023-05-16T08:16:51;97931.31;;;16.98;88.64
33781;BME280;20097;50.832;19.100;2023-05-16T08:21:56;97931.78;;;17.06;90.97
33781;BME280;20097;50.832;19.100;2023-05-16T08:27:00;97940.47;;;17.25;90.28
33781;BME280;20097;50.832;19.100;2023-05-16T08:32:05;97949.19;;;17.25;86.22
33781;BME280;20097;50.832;19.100;2023-05-16T08:37:10;97970.84;;;17.27;84.96
33781;BME280;20097;50.832;19.100;2023-05-16T08:42:15;97972.28;;;17.41;84.04
33781;BME280;20097;50.832;19.100;2023-05-16T08:47:19;97975.09;;;17.46;78.64
33781;BME280;20097;50.832;19.100;2023-05-16T08:52:26;97973.53;;;17.68;75.87
33781;BME280;20097;50.832;19.100;2023-05-16T08:57:32;97986.50;;;17.70;78.75
33781;BME280;20097;50.832;19.100;2023-05-16T09:02:37;98002.72;;;17.73;79.07
33781;BME280;20097;50.832;19.100;2023-05-16T09:07:43;97996.06;;;17.83;77.26
33781;BME280;20097;50.832;19.100;2023-05-16T09:12:47;97990.50;;;18.25;81.90
33781;BME280;20097;50.832;19.100;2023-05-16T09:17:52;97991.34;;;18.49;78.35
33781;BME280;20097;50.832;19.100;2023-05-16T09:22:58;97978.22;;;18.19;77.14
33781;BME280;20097;50.832;19.100;2023-05-16T09:28:02;97965.94;;;18.13;73.52
33781;BME280;20097;50.832;19.100;2023-05-16T09:33:07;97985.56;;;18.75;69.29
33781;BME280;20097;50.832;19.100;2023-05-16T09:38:16;97976.88;;;19.02;68.39
33781;BME280;20097;50.832;19.100;2023-05-16T09:43:23;97981.28;;;19.25;67.96
33781;BME280;20097;50.832;19.100;2023-05-16T09:48:27;97984.66;;;19.21;69.08
33781;BME280;20097;50.832;19.100;2023-05-16T09:53:33;97982.75;;;18.93;72.06
33781;BME280;20097;50.832;19.100;2023-05-16T09:58:39;97991.63;;;19.38;67.10
33781;BME280;20097;50.832;19.100;2023-05-16T10:03:43;97999.06;;;19.69;66.32
33781;BME280;20097;50.832;19.100;2023-05-16T10:08:49;98015.59;;;19.76;69.69
33781;BME280;20097;50.832;19.100;2023-05-16T10:13:53;98010.19;;;19.55;66.59
33781;BME280;20097;50.832;19.100;2023-05-16T10:18:57;98005.19;;;19.86;68.34
33781;BME280;20097;50.832;19.100;2023-05-16T10:24:06;98000.09;;;19.68;65.58
33781;BME280;20097;50.832;19.100;2023-05-16T10:29:11;98006.88;;;20.09;64.54
33781;BME280;20097;50.832;19.100;2023-05-16T10:34:15;98015.78;;;20.03;60.22
33781;BME280;20097;50.832;19.100;2023-05-16T10:39:21;97997.31;;;19.91;61.12
33781;BME280;20097;50.832;19.100;2023-05-16T10:44:25;97997.06;;;19.93;59.17
33781;BME280;20097;50.832;19.100;2023-05-16T10:49:30;97992.34;;;20.28;58.73
33781;BME280;20097;50.832;19.100;2023-05-16T10:54:37;97993.16;;;20.45;58.37
33781;BME280;20097;50.832;19.100;2023-05-16T10:59:43;97995.22;;;20.98;58.52
33781;BME280;20097;50.832;19.100;2023-05-16T11:04:48;97983.44;;;20.72;60.00
33781;BME280;20097;50.832;19.100;2023-05-16T11:10:05;97989.94;;;20.98;58.71
33781;BME280;20097;50.832;19.100;2023-05-16T11:15:21;97993.31;;;21.15;59.02
33781;BME280;20097;50.832;19.100;2023-05-16T11:20:29;97992.97;;;20.68;61.45
33781;BME280;20097;50.832;19.100;2023-05-16T11:25:35;98009.31;;;20.27;60.30
33781;BME280;20097;50.832;19.100;2023-05-16T11:30:43;98000.78;;;20.41;57.34
33781;BME280;20097;50.832;19.100;2023-05-16T11:36:04;98001.53;;;20.37;52.51
33781;BME280;20097;50.832;19.100;2023-05-16T11:41:19;97981.91;;;20.76;58.14
33781;BME280;20097;50.832;19.100;2023-05-16T11:46:24;97984.75;;;20.70;57.75
33781;BME280;20097;50.832;19.100;2023-05-16T11:51:29;97978.69;;;20.74;57.42
33781;BME280;20097;50.832;19.100;2023-05-16T11:56:38;97983.22;;;20.35;59.10
33781;BME280;20097;50.832;19.100;2023-05-16T12:01:42;97986.69;;;20.19;61.37
33781;BME280;20097;50.832;19.100;2023-05-16T12:06:57;97985.28;;;20.33;62.32
33781;BME280;20097;50.832;19.100;2023-05-16T12:12:06;97992.50;;;20.55;60.48
33781;BME280;20097;50.832;19.100;2023-05-16T12:17:10;97988.16;;;20.49;59.54
33781;BME280;20097;50.832;19.100;2023-05-16T12:22:15;97998.75;;;20.65;57.54
33781;BME280;20097;50.832;19.100;2023-05-16T12:27:25;97988.44;;;20.69;58.40
33781;BME280;20097;50.832;19.100;2023-05-16T12:32:30;97974.84;;;21.03;60.06
33781;BME280;20097;50.832;19.100;2023-05-16T12:37:42;97977.00;;;20.85;59.17
33781;BME280;20097;50.832;19.100;2023-05-16T12:42:49;97980.34;;;20.97;59.13
33781;BME280;20097;50.832;19.100;2023-05-16T12:47:54;97979.31;;;20.60;59.80
33781;BME280;20097;50.832;19.100;2023-05-16T12:52:59;97978.50;;;20.97;60.87
33781;BME280;20097;50.832;19.100;2023-05-16T12:58:05;97977.97;;;20.79;60.19
33781;BME280;20097;50.832;19.100;2023-05-16T13:03:10;97960.34;;;20.51;63.01
33781;BME280;20097;50.832;19.100;2023-05-16T13:08:15;97961.59;;;20.27;61.37
33781;BME280;20097;50.832;19.100;2023-05-16T13:13:20;97960.03;;;20.48;61.71
33781;BME280;20097;50.832;19.100;2023-05-16T13:18:38;97961.66;;;20.49;60.67
33781;BME280;20097;50.832;19.100;2023-05-16T13:23:42;97960.63;;;20.71;61.45
33781;BME280;20097;50.832;19.100;2023-05-16T13:28:48;97971.78;;;20.35;60.66
33781;BME280;20097;50.832;19.100;2023-05-16T13:33:55;97965.81;;;20.23;61.90
33781;BME280;20097;50.832;19.100;2023-05-16T13:38:59;97958.44;;;20.13;65.24
33781;BME280;20097;50.832;19.100;2023-05-16T13:44:05;97972.28;;;19.82;64.02
33781;BME280;20097;50.832;19.100;2023-05-16T13:49:09;97972.28;;;19.82;63.56
33781;BME280;20097;50.832;19.100;2023-05-16T13:54:14;97977.22;;;19.62;62.89
33781;BME280;20097;50.832;19.100;2023-05-16T13:59:20;97976.13;;;19.47;63.02
33781;BME280;20097;50.832;19.100;2023-05-16T14:04:44;97968.41;;;19.29;63.48
33781;BME280;20097;50.832;19.100;2023-05-16T14:09:51;97963.91;;;19.29;64.28
33781;BME280;20097;50.832;19.100;2023-05-16T14:14:57;97968.91;;;19.14;65.40
33781;BME280;20097;50.832;19.100;2023-05-16T14:20:02;97968.50;;;18.94;60.85
33781;BME280;20097;50.832;19.100;2023-05-16T14:25:10;97966.94;;;18.70;61.65
33781;BME280;20097;50.832;19.100;2023-05-16T14:30:15;97954.00;;;18.45;66.22
33781;BME280;20097;50.832;19.100;2023-05-16T14:35:20;97951.69;;;18.37;67.22
33781;BME280;20097;50.832;19.100;2023-05-16T14:40:24;97956.88;;;18.44;69.66
33781;BME280;20097;50.832;19.100;2023-05-16T14:45:30;97946.78;;;18.41;70.88
33781;BME280;20097;50.832;19.100;2023-05-16T14:50:35;97952.69;;;18.25;71.55
33781;BME280;20097;50.832;19.100;2023-05-16T14:55:39;97945.94;;;18.29;74.84
33781;BME280;20097;50.832;19.100;2023-05-16T15:00:45;97952.56;;;18.31;75.78
33781;BME280;20097;50.832;19.100;2023-05-16T15:05:49;97956.88;;;18.44;77.37
33781;BME280;20097;50.832;19.100;2023-05-16T15:10:54;97951.22;;;18.17;73.67
33781;BME280;20097;50.832;19.100;2023-05-16T15:16:00;97952.34;;;17.98;75.85
33781;BME280;20097;50.832;19.100;2023-05-16T15:21:05;97949.22;;;17.78;74.93
33781;BME280;20097;50.832;19.100;2023-05-16T15:26:09;97953.50;;;17.79;74.94
33781;BME280;20097;50.832;19.100;2023-05-16T15:31:15;97957.25;;;17.71;78.54
33781;BME280;20097;50.832;19.100;2023-05-16T15:36:19;97950.94;;;17.61;78.99
33781;BME280;20097;50.832;19.100;2023-05-16T15:41:23;97937.69;;;17.49;83.32
33781;BME280;20097;50.832;19.100;2023-05-16T15:46:34;97940.00;;;17.28;87.97
33781;BME280;20097;50.832;19.100;2023-05-16T15:51:39;97951.72;;;17.02;90.29
33781;BME280;20097;50.832;19.100;2023-05-16T15:56:43;97956.53;;;17.05;95.25
33781;BME280;20097;50.832;19.100;2023-05-16T16:01:48;97951.91;;;16.71;100.00
33781;BME280;20097;50.832;19.100;2023-05-16T16:06:53;97954.13;;;16.31;100.00
33781;BME280;20097;50.832;19.100;2023-05-16T16:11:58;97953.84;;;16.15;100.00
33781;BME280;20097;50.832;19.100;2023-05-16T16:17:03;97948.44;;;15.92;100.00
33781;BME280;20097;50.832;19.100;2023-05-16T16:22:08;97948.00;;;15.95;100.00
33781;BME280;20097;50.832;19.100;2023-05-16T16:27:12;97954.28;;;15.69;100.00
33781;BME280;20097;50.832;19.100;2023-05-16T16:32:17;97956.22;;;15.49;100.00
33781;BME280;20097;50.832;19.100;2023-05-16T16:37:21;97953.22;;;15.46;100.00
33781;BME280;20097;50.832;19.100;2023-05-16T16:42:26;97951.22;;;15.41;100.00
33781;BME280;20097;50.832;19.100;2023-05-16T16:47:33;97949.41;;;15.42;100.00
33781;BME280;20097;50.832;19.100;2023-05-16T16:52:37;97949.00;;;15.38;100.00
33781;BME280;20097;50.832;19.100;2023-05-16T16:57:42;97948.03;;;15.26;100.00
33781;BME280;20097;50.832;19.100;2023-05-16T17:02:48;97954.59;;;15.17;100.00
33781;BME280;20097;50.832;19.100;2023-05-16T17:07:53;97954.63;;;15.10;100.00
33781;BME280;20097;50.832;19.100;2023-05-16T17:12:58;97947.16;;;15.01;100.00
33781;BME280;20097;50.832;19.100;2023-05-16T17:18:10;97948.19;;;15.00;100.00
33781;BME280;20097;50.832;19.100;2023-05-16T17:23:14;97948.63;;;14.90;100.00
33781;BME280;20097;50.832;19.100;2023-05-16T17:28:18;97957.53;;;14.89;100.00
33781;BME280;20097;50.832;19.100;2023-05-16T17:33:24;97969.69;;;14.84;100.00
33781;BME280;20097;50.832;19.100;2023-05-16T17:38:28;97978.19;;;14.79;100.00
33781;BME280;20097;50.832;19.100;2023-05-16T17:43:32;97989.34;;;14.75;100.00
33781;BME280;20097;50.832;19.100;2023-05-16T17:48:37;97998.03;;;14.69;100.00
33781;BME280;20097;50.832;19.100;2023-05-16T17:53:41;98003.28;;;14.62;100.00
33781;BME280;20097;50.832;19.100;2023-05-16T17:58:46;98016.22;;;14.57;100.00
33781;BME280;20097;50.832;19.100;2023-05-16T18:03:51;98020.69;;;14.63;100.00
33781;BME280;20097;50.832;19.100;2023-05-16T18:08:55;98025.94;;;14.63;100.00
33781;BME280;20097;50.832;19.100;2023-05-16T18:14:00;98025.75;;;14.58;100.00
33781;BME280;20097;50.832;19.100;2023-05-16T18:19:05;98015.25;;;14.52;100.00
33781;BME280;20097;50.832;19.100;2023-05-16T18:24:11;98016.44;;;14.49;100.00
33781;BME280;20097;50.832;19.100;2023-05-16T18:29:15;98015.25;;;14.45;100.00
33781;BME280;20097;50.832;19.100;2023-05-16T18:34:20;98017.28;;;14.37;100.00
33781;BME280;20097;50.832;19.100;2023-05-16T18:39:24;98020.34;;;14.27;100.00
33781;BME280;20097;50.832;19.100;2023-05-16T18:44:29;98021.91;;;14.15;100.00
33781;BME280;20097;50.832;19.100;2023-05-16T18:49:35;98029.56;;;14.10;100.00
33781;BME280;20097;50.832;19.100;2023-05-16T18:54:41;98038.28;;;14.11;100.00
33781;BME280;20097;50.832;19.100;2023-05-16T18:59:45;98044.13;;;14.06;100.00
33781;BME280;20097;50.832;19.100;2023-05-16T19:04:51;98047.38;;;14.02;100.00
33781;BME280;20097;50.832;19.100;2023-05-16T19:09:55;98055.63;;;13.99;100.00
33781;BME280;20097;50.832;19.100;2023-05-16T19:15:01;98064.91;;;13.88;100.00
33781;BME280;20097;50.832;19.100;2023-05-16T19:20:07;98064.69;;;13.83;100.00
33781;BME280;20097;50.832;19.100;2023-05-16T19:25:12;98069.50;;;13.73;100.00
33781;BME280;20097;50.832;19.100;2023-05-16T19:30:16;98071.31;;;13.72;100.00
33781;BME280;20097;50.832;19.100;2023-05-16T19:35:22;98079.19;;;13.66;100.00
33781;BME280;20097;50.832;19.100;2023-05-16T19:40:27;98077.97;;;13.62;100.00
33781;BME280;20097;50.832;19.100;2023-05-16T19:45:31;98090.06;;;13.63;100.00
33781;BME280;20097;50.832;19.100;2023-05-16T19:50:39;98088.03;;;13.58;100.00
33781;BME280;20097;50.832;19.100;2023-05-16T19:55:43;98095.09;;;13.58;100.00
33781;BME280;20097;50.832;19.100;2023-05-16T20:00:48;98092.66;;;13.56;100.00
33781;BME280;20097;50.832;19.100;2023-05-16T20:05:55;98094.66;;;13.48;100.00
33781;BME280;20097;50.832;19.100;2023-05-16T20:10:59;98098.88;;;13.42;100.00
33781;BME280;20097;50.832;19.100;2023-05-16T20:16:04;98089.97;;;13.37;100.00
33781;BME280;20097;50.832;19.100;2023-05-16T20:21:10;98085.25;;;13.19;100.00
33781;BME280;20097;50.832;19.100;2023-05-16T20:26:13;98092.69;;;13.16;100.00
33781;BME280;20097;50.832;19.100;2023-05-16T20:31:17;98101.94;;;13.05;100.00
33781;BME280;20097;50.832;19.100;2023-05-16T20:36:23;98100.06;;;12.99;100.00
33781;BME280;20097;50.832;19.100;2023-05-16T20:41:27;98087.44;;;12.82;100.00
33781;BME280;20097;50.832;19.100;2023-05-16T20:46:32;98083.75;;;12.70;100.00
33781;BME280;20097;50.832;19.100;2023-05-16T20:51:37;98082.47;;;12.59;100.00
33781;BME280;20097;50.832;19.100;2023-05-16T20:56:41;98074.56;;;12.53;100.00
33781;BME280;20097;50.832;19.100;2023-05-16T21:01:45;98070.72;;;12.49;100.00
33781;BME280;20097;50.832;19.100;2023-05-16T21:06:51;98078.97;;;12.46;100.00
33781;BME280;20097;50.832;19.100;2023-05-16T21:11:55;98078.16;;;12.45;100.00
33781;BME280;20097;50.832;19.100;2023-05-16T21:17:00;98075.72;;;12.43;100.00
33781;BME280;20097;50.832;19.100;2023-05-16T21:22:05;98070.88;;;12.40;100.00
33781;BME280;20097;50.832;19.100;2023-05-16T21:27:10;98055.72;;;12.36;100.00
33781;BME280;20097;50.832;19.100;2023-05-16T21:32:14;98056.16;;;12.39;100.00
33781;BME280;20097;50.832;19.100;2023-05-16T21:37:19;98040.25;;;12.41;100.00
33781;BME280;20097;50.832;19.100;2023-05-16T21:42:24;98038.44;;;12.41;100.00
33781;BME280;20097;50.832;19.100;2023-05-16T21:47:27;98043.09;;;12.46;100.00
33781;BME280;20097;50.832;19.100;2023-05-16T21:52:33;98041.13;;;12.48;100.00
33781;BME280;20097;50.832;19.100;2023-05-16T21:57:37;98029.69;;;12.56;100.00
33781;BME280;20097;50.832;19.100;2023-05-16T22:02:42;98032.53;;;12.61;100.00
33781;BME280;20097;50.832;19.100;2023-05-16T22:07:48;98021.03;;;12.55;100.00
33781;BME280;20097;50.832;19.100;2023-05-16T22:12:52;98019.69;;;12.38;100.00
33781;BME280;20097;50.832;19.100;2023-05-16T22:17:56;98025.28;;;12.28;100.00
33781;BME280;20097;50.832;19.100;2023-05-16T22:23:02;98027.22;;;12.20;100.00
33781;BME280;20097;50.832;19.100;2023-05-16T22:28:06;98031.63;;;12.13;100.00
33781;BME280;20097;50.832;19.100;2023-05-16T22:33:10;98017.28;;;12.09;100.00
33781;BME280;20097;50.832;19.100;2023-05-16T22:38:15;98013.78;;;12.02;100.00
33781;BME280;20097;50.832;19.100;2023-05-16T22:43:19;98010.00;;;12.04;100.00
33781;BME280;20097;50.832;19.100;2023-05-16T22:48:24;98002.16;;;12.04;100.00
33781;BME280;20097;50.832;19.100;2023-05-16T22:53:29;98007.16;;;11.99;100.00
33781;BME280;20097;50.832;19.100;2023-05-16T22:58:33;98012.13;;;11.94;100.00
33781;BME280;20097;50.832;19.100;2023-05-16T23:03:37;98006.09;;;11.94;100.00
33781;BME280;20097;50.832;19.100;2023-05-16T23:08:43;98010.72;;;11.92;100.00
33781;BME280;20097;50.832;19.100;2023-05-16T23:13:47;98005.91;;;11.95;100.00
33781;BME280;20097;50.832;19.100;2023-05-16T23:18:53;98014.75;;;11.94;100.00
33781;BME280;20097;50.832;19.100;2023-05-16T23:23:59;98017.81;;;11.98;100.00
33781;BME280;20097;50.832;19.100;2023-05-16T23:29:03;98014.41;;;12.04;100.00
33781;BME280;20097;50.832;19.100;2023-05-16T23:34:07;98013.00;;;12.01;100.00
33781;BME280;20097;50.832;19.100;2023-05-16T23:39:13;98017.41;;;12.01;100.00
33781;BME280;20097;50.832;19.100;2023-05-16T23:44:17;98019.47;;;12.05;100.00
33781;BME280;20097;50.832;19.100;2023-05-16T23:49:21;98021.69;;;12.08;100.00
33781;BME280;20097;50.832;19.100;2023-05-16T23:54:27;98008.41;;;12.10;100.00
33781;BME280;20097;50.832;19.100;2023-05-16T23:59:31;98016.25;;;12.10;100.00
